createdAt,value
2018-02-02T00:01:49.369Z,59.70
2018-02-02T00:04:17.202Z,59.70
2018-02-02T00:06:45.038Z,59.80
2018-02-02T00:09:12.742Z,60.00
2018-02-02T00:11:41.284Z,60.10
2018-02-02T00:14:08.945Z,60.30
2018-02-02T00:16:36.607Z,60.00
2018-02-02T00:19:04.140Z,59.80
2018-02-02T00:21:32.237Z,59.80
2018-02-02T00:23:59.946Z,59.60
2018-02-02T00:26:27.506Z,59.70
2018-02-02T00:28:55.873Z,59.40
2018-02-02T00:31:23.537Z,59.40
2018-02-02T00:33:51.261Z,59.40
2018-02-02T00:36:18.854Z,59.30
2018-02-02T00:38:46.382Z,59.60
2018-02-02T00:41:14.084Z,59.70
2018-02-02T00:43:41.945Z,59.10
2018-02-02T00:46:09.610Z,59.40
2018-02-02T00:48:37.230Z,59.40
2018-02-02T00:51:10.394Z,59.10
2018-02-02T00:53:38.085Z,59.10
2018-02-02T00:56:05.848Z,59.10
2018-02-02T00:58:33.613Z,59.30
2018-02-02T01:01:01.376Z,59.50
2018-02-02T01:03:29.112Z,59.30
2018-02-02T01:05:56.741Z,59.50
2018-02-02T01:08:25.030Z,59.60
2018-02-02T01:10:53.559Z,59.80
2018-02-02T01:13:21.266Z,59.80
2018-02-02T01:15:49.749Z,60.20
2018-02-02T01:18:18.285Z,60.10
2018-02-02T01:20:45.947Z,60.10
2018-02-02T01:23:13.711Z,60.10
2018-02-02T01:25:41.513Z,60.10
2018-02-02T01:28:09.278Z,60.10
2018-02-02T01:30:36.938Z,60.10
2018-02-02T01:33:04.598Z,60.20
2018-02-02T01:35:32.223Z,60.20
2018-02-02T01:37:59.758Z,60.60
2018-02-02T01:40:27.290Z,60.20
2018-02-02T01:42:55.823Z,60.20
2018-02-02T01:45:23.629Z,60.10
2018-02-02T01:48:04.705Z,60.40
2018-02-02T01:50:33.186Z,60.70
2018-02-02T01:53:00.908Z,60.20
2018-02-02T01:55:28.674Z,60.50
2018-02-02T01:57:56.377Z,60.40
2018-02-02T02:00:24.917Z,60.70
2018-02-02T02:02:52.826Z,60.50
2018-02-02T02:05:21.302Z,60.50
2018-02-02T02:07:49.148Z,60.50
2018-02-02T02:10:16.997Z,60.30
2018-02-02T02:12:44.761Z,60.30
2018-02-02T02:15:12.423Z,60.30
2018-02-02T02:17:40.085Z,60.60
2018-02-02T02:20:07.890Z,60.50
2018-02-02T02:22:36.393Z,61.50
2018-02-02T02:25:04.211Z,60.80
2018-02-02T02:27:31.806Z,60.90
2018-02-02T02:30:00.342Z,60.70
2018-02-02T02:32:28.042Z,60.60
2018-02-02T02:34:56.584Z,61.30
2018-02-02T02:37:24.348Z,60.90
2018-02-02T02:39:51.913Z,60.90
2018-02-02T02:42:19.672Z,60.90
2018-02-02T02:44:47.333Z,61.00
2018-02-02T02:47:14.994Z,61.10
2018-02-02T02:49:42.901Z,61.30
2018-02-02T02:52:10.625Z,61.10
2018-02-02T02:54:38.133Z,61.20
2018-02-02T02:57:06.610Z,61.10
2018-02-02T02:59:35.146Z,61.00
2018-02-02T03:02:02.910Z,61.00
2018-02-02T03:04:30.780Z,61.30
2018-02-02T03:06:58.482Z,61.30
2018-02-02T03:09:27.024Z,61.20
2018-02-02T03:11:54.646Z,61.20
2018-02-02T03:14:22.186Z,61.20
2018-02-02T03:16:50.666Z,61.10
2018-02-02T03:19:19.204Z,61.20
2018-02-02T03:21:46.968Z,61.10
2018-02-02T03:24:14.732Z,61.00
2018-02-02T03:26:42.499Z,61.20
2018-02-02T03:29:10.362Z,61.20
2018-02-02T03:31:38.110Z,61.30
2018-02-02T03:34:05.626Z,61.40
2018-02-02T03:36:34.064Z,61.40
2018-02-02T03:39:01.930Z,61.30
2018-02-02T03:41:29.694Z,61.20
2018-02-02T03:43:57.506Z,61.30
2018-02-02T03:46:25.943Z,61.20
2018-02-02T03:48:53.546Z,61.20
2018-02-02T03:51:22.186Z,61.60
2018-02-02T03:53:49.798Z,61.60
2018-02-02T03:56:18.095Z,61.50
2018-02-02T03:58:45.784Z,61.50
2018-02-02T04:01:13.752Z,61.30
2018-02-02T04:03:41.828Z,61.60
2018-02-02T04:06:09.383Z,61.70
2018-02-02T04:08:36.994Z,61.70
2018-02-02T04:11:05.466Z,61.40
2018-02-02T04:13:33.804Z,62.30
2018-02-02T04:16:01.467Z,61.80
2018-02-02T04:18:29.434Z,61.80
2018-02-02T04:20:57.077Z,61.80
2018-02-02T04:23:24.798Z,61.50
2018-02-02T04:25:53.282Z,61.80
2018-02-02T04:28:21.820Z,61.50
2018-02-02T04:30:49.689Z,61.40
2018-02-02T04:33:17.348Z,61.60
2018-02-02T04:35:45.239Z,61.60
2018-02-02T04:38:12.798Z,61.70
2018-02-02T04:40:40.639Z,61.50
2018-02-02T04:43:08.346Z,61.70
2018-02-02T04:45:36.105Z,61.70
2018-02-02T04:48:04.651Z,62.10
2018-02-02T04:50:32.312Z,61.60
2018-02-02T04:52:59.863Z,61.70
2018-02-02T04:55:27.533Z,61.80
2018-02-02T04:57:55.399Z,61.40
2018-02-02T05:00:23.060Z,61.50
2018-02-02T05:02:50.761Z,61.40
2018-02-02T05:05:18.526Z,61.30
2018-02-02T05:07:46.351Z,61.20
2018-02-02T05:10:14.057Z,61.40
2018-02-02T05:12:42.597Z,62.20
2018-02-02T05:15:10.190Z,61.50
2018-02-02T05:17:37.858Z,61.30
2018-02-02T05:20:05.552Z,61.40
2018-02-02T05:22:33.178Z,61.40
2018-02-02T05:25:00.695Z,61.30
2018-02-02T05:27:28.567Z,61.30
2018-02-02T05:29:56.536Z,61.00
2018-02-02T05:32:24.299Z,61.20
2018-02-02T05:34:52.064Z,61.30
2018-02-02T05:37:20.033Z,61.30
2018-02-02T05:39:47.796Z,61.20
2018-02-02T05:42:15.560Z,61.10
2018-02-02T05:44:43.304Z,61.20
2018-02-02T05:47:10.870Z,61.40
2018-02-02T05:49:38.486Z,61.50
2018-02-02T05:52:07.026Z,61.80
2018-02-02T05:54:34.790Z,61.30
2018-02-02T05:57:02.338Z,61.60
2018-02-02T05:59:29.925Z,61.30
2018-02-02T06:01:57.775Z,61.30
2018-02-02T06:04:25.334Z,61.30
2018-02-02T06:06:53.098Z,61.50
2018-02-02T06:09:20.718Z,61.30
2018-02-02T06:11:49.240Z,61.70
2018-02-02T06:14:16.782Z,61.70
2018-02-02T06:16:44.508Z,61.80
2018-02-02T06:19:38.651Z,61.80
2018-02-02T06:22:08.298Z,61.80
2018-02-02T06:24:36.765Z,61.90
2018-02-02T06:27:04.380Z,61.80
2018-02-02T06:29:32.057Z,62.00
2018-02-02T06:31:59.578Z,62.30
2018-02-02T06:34:27.089Z,62.30
2018-02-02T06:37:00.615Z,62.70
2018-02-02T06:39:29.037Z,63.00
2018-02-02T06:41:56.650Z,62.80
2018-02-02T06:44:24.310Z,63.10
2018-02-02T06:46:52.140Z,63.40
2018-02-02T06:49:19.849Z,64.30
2018-02-02T06:51:48.282Z,65.30
2018-02-02T06:54:16.046Z,65.20
2018-02-02T06:56:43.750Z,65.30
2018-02-02T06:59:12.393Z,66.00
2018-02-02T07:01:40.098Z,65.40
2018-02-02T07:04:07.921Z,65.50
2018-02-02T07:06:35.514Z,65.40
2018-02-02T07:09:03.248Z,65.40
2018-02-02T07:11:30.783Z,65.30
2018-02-02T07:13:58.510Z,65.50
2018-02-02T07:16:26.989Z,65.50
2018-02-02T07:18:55.293Z,65.60
2018-02-02T07:21:23.144Z,65.60
2018-02-02T07:23:50.789Z,65.50
2018-02-02T07:26:18.617Z,65.60
2018-02-02T07:28:46.381Z,65.80
2018-02-02T07:31:14.086Z,65.70
2018-02-02T07:33:42.445Z,66.30
2018-02-02T07:36:10.132Z,66.30
2018-02-02T07:38:38.606Z,66.10
2018-02-02T07:41:06.911Z,65.40
2018-02-02T07:43:35.423Z,66.00
2018-02-02T07:46:03.126Z,66.00
2018-02-02T07:48:30.849Z,66.30
2018-02-02T07:50:58.613Z,66.00
2018-02-02T07:53:26.378Z,66.40
2018-02-02T07:55:53.966Z,66.40
2018-02-02T07:58:21.599Z,66.00
2018-02-02T08:00:54.934Z,66.10
2018-02-02T08:03:22.474Z,66.10
2018-02-02T08:05:50.158Z,66.20
2018-02-02T08:08:18.638Z,66.20
2018-02-02T08:10:47.075Z,66.60
2018-02-02T08:13:14.735Z,66.50
2018-02-02T08:15:42.447Z,66.40
2018-02-02T08:18:10.982Z,66.40
2018-02-02T08:20:38.643Z,66.40
2018-02-02T08:23:07.124Z,66.40
2018-02-02T08:25:34.887Z,66.40
2018-02-02T08:28:02.652Z,66.30
2018-02-02T08:30:30.313Z,66.50
2018-02-02T08:32:58.022Z,66.60
2018-02-02T08:35:26.456Z,66.40
2018-02-02T08:37:54.162Z,66.40
2018-02-02T08:40:22.703Z,66.50
2018-02-02T08:42:50.238Z,66.40
2018-02-02T08:45:17.854Z,66.30
2018-02-02T08:47:45.685Z,66.30
2018-02-02T08:50:13.652Z,67.00
2018-02-02T08:52:41.316Z,66.40
2018-02-02T08:55:09.119Z,66.30
2018-02-02T08:57:36.947Z,66.50
2018-02-02T09:00:04.759Z,66.90
2018-02-02T09:02:33.294Z,66.30
2018-02-02T09:05:00.822Z,66.30
2018-02-02T09:07:28.543Z,66.10
2018-02-02T09:09:56.058Z,66.20
2018-02-02T09:12:23.670Z,66.10
2018-02-02T09:14:51.191Z,65.90
2018-02-02T09:17:18.862Z,66.70
2018-02-02T09:19:46.554Z,66.40
2018-02-02T09:22:14.382Z,66.30
2018-02-02T09:24:42.046Z,65.90
2018-02-02T09:27:09.296Z,65.60
2018-02-02T09:29:37.002Z,65.60
2018-02-02T09:32:05.541Z,65.50
2018-02-02T09:34:33.246Z,65.50
2018-02-02T09:37:01.685Z,66.50
2018-02-02T09:39:29.653Z,65.90
2018-02-02T09:41:57.539Z,65.80
2018-02-02T09:44:25.170Z,65.90
2018-02-02T09:46:52.944Z,66.00
2018-02-02T09:49:20.607Z,65.70
2018-02-02T09:51:48.370Z,65.90
2018-02-02T09:54:16.134Z,65.90
2018-02-02T09:56:44.001Z,66.00
2018-02-02T09:59:11.767Z,66.30
2018-02-02T10:01:39.341Z,66.10
2018-02-02T10:04:06.930Z,66.10
2018-02-02T10:06:35.467Z,66.00
2018-02-02T10:09:03.333Z,66.00
2018-02-02T10:11:31.098Z,66.90
2018-02-02T10:13:58.759Z,66.20
2018-02-02T10:16:26.318Z,66.20
2018-02-02T10:18:53.980Z,66.50
2018-02-02T10:21:21.847Z,66.50
2018-02-02T10:23:49.508Z,66.50
2018-02-02T10:26:17.273Z,66.50
2018-02-02T10:28:44.978Z,66.70
2018-02-02T10:31:13.310Z,66.50
2018-02-02T10:33:40.975Z,66.50
2018-02-02T10:36:08.636Z,66.40
2018-02-02T10:38:36.399Z,67.10
2018-02-02T10:41:04.061Z,66.90
2018-02-02T10:43:31.927Z,66.90
2018-02-02T10:45:59.589Z,66.70
2018-02-02T10:48:27.455Z,66.70
2018-02-02T10:50:55.186Z,66.90
2018-02-02T10:53:22.926Z,66.70
2018-02-02T10:55:51.409Z,66.10
2018-02-02T10:58:19.742Z,66.40
2018-02-02T11:00:53.242Z,66.30
2018-02-02T11:03:35.790Z,66.00
2018-02-02T11:06:03.413Z,66.20
2018-02-02T11:08:31.073Z,65.90
2018-02-02T11:10:58.780Z,66.00
2018-02-02T11:13:27.117Z,66.30
2018-02-02T11:15:54.819Z,66.10
2018-02-02T11:18:23.102Z,66.50
2018-02-02T11:20:51.532Z,66.40
2018-02-02T11:23:19.500Z,66.40
2018-02-02T11:25:47.123Z,66.40
2018-02-02T11:28:14.811Z,66.40
2018-02-02T11:30:42.690Z,66.90
2018-02-02T11:33:10.456Z,66.60
2018-02-02T11:35:38.423Z,67.40
2018-02-02T11:38:06.187Z,66.40
2018-02-02T11:40:33.891Z,66.60
2018-02-02T11:43:02.432Z,66.70
2018-02-02T11:45:30.138Z,66.70
2018-02-02T11:47:58.677Z,66.70
2018-02-02T11:50:26.441Z,66.70
2018-02-02T11:52:54.069Z,66.70
2018-02-02T11:55:21.662Z,66.70
2018-02-02T11:57:49.366Z,66.30
2018-02-02T12:00:17.854Z,67.50
2018-02-02T12:02:46.251Z,66.90
2018-02-02T12:05:13.854Z,66.80
2018-02-02T12:07:41.506Z,67.30
2018-02-02T12:10:09.373Z,67.30
2018-02-02T12:12:37.239Z,67.00
2018-02-02T12:15:04.901Z,66.60
2018-02-02T12:17:32.562Z,66.70
2018-02-02T12:20:00.844Z,66.90
2018-02-02T12:22:30.482Z,67.40
2018-02-02T12:24:58.017Z,67.20
2018-02-02T12:30:42.628Z,67.00
2018-02-02T12:33:17.722Z,66.90
2018-02-02T12:35:58.002Z,66.80
2018-02-02T12:38:25.790Z,66.90
2018-02-02T12:40:54.221Z,67.30
2018-02-02T12:43:21.984Z,67.20
2018-02-02T12:45:49.690Z,67.40
2018-02-02T12:48:29.126Z,67.50
2018-02-02T12:51:01.645Z,66.60
2018-02-02T12:53:30.347Z,67.00
2018-02-02T12:55:57.903Z,67.00
2018-02-02T12:58:25.572Z,67.10
2018-02-02T13:00:53.274Z,66.70
2018-02-02T13:03:21.717Z,66.90
2018-02-02T13:05:49.420Z,66.90
2018-02-02T13:08:17.853Z,67.00
2018-02-02T13:10:45.617Z,66.90
2018-02-02T13:13:13.325Z,66.80
2018-02-02T13:15:41.685Z,66.30
2018-02-02T13:18:09.524Z,66.20
2018-02-02T13:20:37.288Z,66.40
2018-02-02T13:23:04.990Z,66.20
2018-02-02T13:25:32.654Z,66.50
2018-02-02T13:28:00.998Z,67.00
2018-02-02T13:30:28.694Z,66.10
2018-02-02T13:32:56.974Z,66.40
2018-02-02T13:35:25.453Z,66.00
2018-02-02T13:37:53.173Z,65.90
2018-02-02T13:40:21.243Z,66.30
2018-02-02T13:42:49.009Z,66.60
2018-02-02T13:45:16.977Z,66.20
2018-02-02T13:47:44.741Z,66.20
2018-02-02T13:50:12.447Z,66.50
2018-02-02T13:52:40.889Z,66.80
2018-02-02T13:55:08.554Z,66.70
2018-02-02T13:57:36.250Z,66.90
2018-02-02T14:00:04.693Z,66.80
2018-02-02T14:02:32.447Z,66.80
2018-02-02T14:04:59.993Z,66.70
2018-02-02T14:07:27.775Z,66.90
2018-02-02T14:09:55.539Z,66.90
2018-02-02T14:12:23.509Z,67.30
2018-02-02T14:14:51.138Z,67.30
2018-02-02T14:17:18.831Z,67.00
2018-02-02T14:19:46.541Z,66.80
2018-02-02T14:22:14.974Z,67.00
2018-02-02T14:24:42.738Z,67.00
2018-02-02T14:27:10.442Z,67.20
2018-02-02T14:29:38.862Z,67.60
2018-02-02T14:32:06.478Z,67.50
2018-02-02T14:34:34.204Z,67.20
2018-02-02T14:37:01.968Z,67.70
2018-02-02T14:39:29.630Z,67.20
2018-02-02T14:41:57.183Z,67.30
2018-02-02T14:44:24.953Z,67.70
2018-02-02T14:46:52.702Z,68.10
2018-02-02T14:49:20.378Z,68.10
2018-02-02T14:51:48.041Z,67.50
2018-02-02T14:54:15.702Z,67.60
2018-02-02T14:56:43.364Z,67.50
2018-02-02T14:59:11.038Z,67.70
2018-02-02T15:01:38.687Z,67.70
2018-02-02T15:04:06.210Z,67.80
2018-02-02T15:06:34.010Z,67.70
2018-02-02T15:09:01.682Z,67.30
2018-02-02T15:11:29.370Z,67.70
2018-02-02T15:13:56.998Z,67.50
2018-02-02T15:16:24.701Z,68.20
2018-02-02T15:18:52.318Z,67.50
2018-02-02T15:21:19.842Z,67.40
2018-02-02T15:23:47.540Z,67.60
2018-02-02T15:26:15.314Z,67.60
2018-02-02T15:28:43.068Z,67.80
2018-02-02T15:31:10.934Z,67.50
2018-02-02T15:33:38.478Z,67.80
2018-02-02T15:36:06.005Z,67.90
2018-02-02T15:38:34.533Z,67.50
2018-02-02T15:41:02.242Z,67.60
2018-02-02T15:43:30.613Z,67.80
2018-02-02T15:45:58.439Z,67.90
2018-02-02T15:48:26.145Z,67.60
2018-02-02T15:50:54.583Z,69.10
2018-02-02T15:53:22.346Z,68.40
2018-02-02T15:55:49.918Z,68.40
2018-02-02T15:58:17.772Z,68.10
2018-02-02T16:00:45.435Z,67.80
2018-02-02T16:03:13.096Z,67.90
2018-02-02T16:05:40.802Z,67.60
2018-02-02T16:08:08.624Z,67.70
2018-02-02T16:10:36.138Z,67.70
2018-02-02T16:13:04.776Z,67.60
2018-02-02T16:15:32.684Z,67.60
2018-02-02T16:18:00.341Z,67.80
2018-02-02T16:20:28.654Z,68.30
2018-02-02T16:22:57.359Z,68.10
2018-02-02T16:25:25.062Z,68.40
2018-02-02T16:27:52.887Z,68.40
2018-02-02T16:30:20.650Z,68.30
2018-02-02T16:32:48.619Z,68.50
2018-02-02T16:35:16.137Z,69.00
2018-02-02T16:37:44.558Z,68.80
2018-02-02T16:40:12.362Z,68.80
2018-02-02T16:42:40.187Z,68.90
2018-02-02T16:45:07.930Z,68.90
2018-02-02T16:47:35.716Z,68.80
2018-02-02T16:50:03.480Z,69.00
2018-02-02T16:52:31.087Z,68.60
2018-02-02T16:54:59.566Z,69.30
2018-02-02T16:57:27.905Z,69.20
2018-02-02T16:59:55.502Z,69.20
2018-02-02T17:02:23.325Z,69.40
2018-02-02T17:04:51.310Z,69.40
2018-02-02T17:07:19.175Z,69.50
2018-02-02T17:09:46.865Z,69.60
2018-02-02T17:12:15.151Z,69.50
2018-02-02T17:14:43.621Z,69.60
2018-02-02T17:17:12.162Z,69.50
2018-02-02T17:19:40.029Z,69.50
2018-02-02T17:22:07.895Z,69.30
2018-02-02T17:24:35.457Z,69.50
2018-02-02T17:27:03.320Z,69.50
2018-02-02T17:29:30.976Z,69.70
2018-02-02T17:31:58.643Z,69.40
2018-02-02T17:34:26.154Z,69.60
2018-02-02T17:36:54.786Z,69.50
2018-02-02T17:39:22.448Z,69.50
2018-02-02T17:41:49.962Z,69.50
2018-02-02T17:44:18.290Z,69.50
2018-02-02T17:46:45.986Z,69.50
2018-02-02T17:49:13.646Z,69.50
2018-02-02T17:51:41.722Z,69.40
2018-02-02T17:54:10.202Z,69.10
2018-02-02T17:56:38.618Z,68.80
2018-02-02T17:59:06.187Z,68.80
2018-02-02T18:01:35.499Z,69.30
2018-02-02T18:04:03.262Z,69.00
2018-02-02T18:06:30.854Z,68.80
2018-02-02T18:08:58.723Z,69.00
2018-02-02T18:11:27.170Z,68.90
2018-02-02T18:13:54.831Z,68.70
2018-02-02T18:16:22.801Z,68.90
2018-02-02T18:18:50.467Z,68.80
2018-02-02T18:21:18.124Z,68.80
2018-02-02T18:23:45.830Z,69.00
2018-02-02T18:26:14.162Z,69.30
2018-02-02T18:28:41.714Z,69.30
2018-02-02T18:31:09.425Z,69.30
2018-02-02T18:33:37.148Z,69.00
2018-02-02T18:36:04.854Z,69.50
2018-02-02T18:38:33.291Z,69.60
2018-02-02T18:41:00.894Z,69.50
2018-02-02T18:43:29.433Z,70.40
2018-02-02T18:45:57.030Z,69.70
2018-02-02T18:48:24.586Z,69.70
2018-02-02T18:50:52.214Z,69.60
2018-02-02T18:53:20.080Z,69.40
2018-02-02T18:55:47.622Z,69.40
2018-02-02T18:58:15.490Z,69.70
2018-02-02T19:00:43.238Z,69.50
2018-02-02T19:03:10.994Z,69.50
2018-02-02T19:05:38.511Z,69.00
2018-02-02T19:08:06.118Z,69.00
2018-02-02T19:10:33.858Z,69.30
2018-02-02T19:13:02.490Z,69.40
2018-02-02T19:15:30.237Z,69.40
2018-02-02T19:17:57.986Z,69.20
2018-02-02T19:20:26.408Z,68.70
2018-02-02T19:22:54.010Z,68.70
2018-02-02T19:25:22.526Z,68.60
2018-02-02T19:27:50.266Z,68.60
2018-02-02T19:30:18.557Z,68.20
2018-02-02T19:32:46.394Z,68.20
2018-02-02T19:35:15.155Z,68.40
2018-02-02T19:37:43.057Z,68.30
2018-02-02T19:40:11.713Z,68.30
2018-02-02T19:42:39.614Z,68.30
2018-02-02T19:45:08.250Z,68.30
2018-02-02T19:47:36.121Z,68.20
2018-02-02T19:50:03.871Z,68.60
2018-02-02T19:52:31.614Z,68.60
2018-02-02T19:54:59.366Z,68.40
2018-02-02T19:57:27.230Z,68.20
2018-02-02T19:59:55.096Z,68.00
2018-02-02T20:02:22.845Z,67.90
2018-02-02T20:04:51.190Z,67.30
2018-02-02T20:07:18.939Z,67.20
2018-02-02T20:09:46.814Z,67.60
2018-02-02T20:12:14.719Z,67.20
2018-02-02T20:14:42.458Z,67.50
2018-02-02T20:17:09.972Z,66.90
2018-02-02T20:19:37.826Z,66.90
2018-02-02T20:22:06.268Z,67.10
2018-02-02T20:24:33.826Z,66.90
2018-02-02T20:27:01.665Z,67.10
2018-02-02T20:29:29.406Z,67.00
2018-02-02T20:31:57.170Z,67.50
2018-02-02T20:34:24.913Z,67.30
2018-02-02T20:36:53.541Z,67.20
2018-02-02T20:39:21.407Z,67.20
2018-02-02T20:41:48.926Z,67.20
2018-02-02T20:44:17.514Z,66.90
2018-02-02T20:46:45.258Z,66.80
2018-02-02T20:49:13.754Z,67.30
2018-02-02T20:51:42.050Z,67.80
2018-02-02T20:54:09.806Z,67.10
2018-02-02T20:56:37.342Z,67.00
2018-02-02T20:59:05.995Z,66.90
2018-02-02T21:01:34.302Z,66.80
2018-02-02T21:04:02.818Z,67.60
2018-02-02T21:06:30.337Z,67.60
2018-02-02T21:08:57.910Z,67.10
2018-02-02T21:11:25.398Z,67.30
2018-02-02T21:13:53.261Z,67.70
2018-02-02T21:16:20.778Z,67.60
2018-02-02T21:18:48.302Z,67.50
2018-02-02T21:21:15.913Z,67.20
2018-02-02T21:23:44.600Z,67.40
2018-02-02T21:26:13.238Z,67.10
2018-02-02T21:28:41.114Z,67.10
2018-02-02T21:31:08.862Z,67.00
2018-02-02T21:33:36.738Z,66.70
2018-02-02T21:36:04.551Z,66.80
2018-02-02T21:38:32.422Z,67.40
2018-02-02T21:41:00.294Z,67.10
2018-02-02T21:43:28.153Z,66.50
2018-02-02T21:45:55.948Z,66.60
2018-02-02T21:48:23.834Z,67.40
2018-02-02T21:50:51.586Z,67.50
2018-02-02T21:53:19.446Z,67.00
2018-02-02T21:55:47.197Z,67.20
2018-02-02T21:58:15.050Z,67.30
2018-02-02T22:00:42.922Z,67.50
2018-02-02T22:03:10.778Z,67.40
2018-02-02T22:05:38.718Z,67.70
2018-02-02T22:08:06.594Z,67.60
2018-02-02T22:10:35.238Z,67.90
2018-02-02T22:13:03.117Z,67.80
2018-02-02T22:15:30.666Z,67.90
2018-02-02T22:17:58.434Z,67.80
2018-02-02T22:20:26.488Z,67.90
2018-02-02T22:22:54.086Z,67.90
2018-02-02T22:25:22.002Z,68.10
2018-02-02T22:27:49.775Z,68.30
2018-02-02T22:30:17.535Z,67.90
2018-02-02T22:32:45.179Z,68.10
2018-02-02T22:35:12.854Z,68.00
2018-02-02T22:37:40.706Z,67.70
2018-02-02T22:40:08.582Z,67.20
2018-02-02T22:42:36.418Z,67.50
2018-02-02T22:45:04.934Z,67.00
2018-02-02T22:47:32.611Z,66.90
2018-02-02T22:50:00.470Z,67.40
2018-02-02T22:52:28.358Z,67.20
2018-02-02T22:54:56.226Z,67.10
2018-02-02T22:57:23.974Z,67.00
2018-02-02T22:59:51.834Z,66.90
2018-02-02T23:02:19.550Z,67.00
2018-02-02T23:04:48.138Z,66.90
2018-02-02T23:07:16.430Z,66.80
2018-02-02T23:09:44.190Z,66.80
2018-02-02T23:12:12.542Z,66.90
2018-02-02T23:14:40.398Z,66.90
2018-02-02T23:17:08.251Z,67.00
2018-02-02T23:19:36.004Z,67.00
2018-02-02T23:22:03.754Z,67.10
2018-02-02T23:24:31.746Z,66.80
2018-02-02T23:26:59.627Z,67.10
2018-02-02T23:29:27.378Z,67.40
2018-02-02T23:31:54.893Z,67.30
2018-02-02T23:34:22.642Z,67.10
2018-02-02T23:36:51.302Z,67.40
2018-02-02T23:39:18.984Z,67.20
2018-02-02T23:41:47.273Z,67.60
2018-02-02T23:44:15.730Z,67.70
2018-02-02T23:46:43.494Z,67.60
2018-02-02T23:49:11.234Z,67.50
2018-02-02T23:51:38.981Z,67.60
2018-02-02T23:54:06.678Z,67.30
2018-02-02T23:56:34.358Z,67.20
2018-02-02T23:59:02.950Z,67.00
